<?xml version="1.0" encoding="UTF-8" standalone="no" ?>
<gpx xmlns="http://www.topografix.com/GPX/1/1" xmlns:xsi="http://www.w3.org/2001/XMLSchema-instance" xsi:schemaLocation="http://www.topografix.com/GPX/1/1 http://www.topografix.com/GPX/1/1/gpx.xsd" version="1.1" creator="VisuGPX - https://www.visugpx.com">
  <metadata>
    <name>Pointe aux Chevaux- océan</name>
    <desc><![CDATA[Randonnée terre et mer facile]]></desc>
  </metadata>
  <trk>
    <name><![CDATA[POINTE AUX CHEVAUX]]></name>
    <extensions>
      <line xmlns="http://www.topografix.com/GPX/gpx_style/0/2">
        <color>0000FF</color>
        <width>4</width>
      </line>
    </extensions>
    <trkseg>
      <trkpt lat="44.71873" lon="-1.22041">
        <ele>-14.76</ele>
        <time>2024-08-22T07:24:26Z</time>
      </trkpt>
      <trkpt lat="44.71879" lon="-1.2228">
        <ele>-6.11</ele>
        <time>2024-08-22T07:28:45Z</time>
      </trkpt>
      <trkpt lat="44.71854" lon="-1.224">
        <ele>-10.92</ele>
        <time>2024-08-22T07:29:44Z</time>
      </trkpt>
      <trkpt lat="44.71896" lon="-1.22571">
        <ele>-12.84</ele>
        <time>2024-08-22T07:31:19Z</time>
      </trkpt>
      <trkpt lat="44.72006" lon="-1.22695">
        <ele>-9.96</ele>
        <time>2024-08-22T07:33:36Z</time>
      </trkpt>
      <trkpt lat="44.72122" lon="-1.22864">
        <ele>-15.72</ele>
        <time>2024-08-22T07:35:33Z</time>
      </trkpt>
      <trkpt lat="44.72163" lon="-1.23001">
        <ele>-12.36</ele>
        <time>2024-08-22T07:36:52Z</time>
      </trkpt>
      <trkpt lat="44.72181" lon="-1.23155">
        <ele>-6.59</ele>
        <time>2024-08-22T07:38:28Z</time>
      </trkpt>
      <trkpt lat="44.72285" lon="-1.23275">
        <ele>-14.28</ele>
        <time>2024-08-22T07:40:15Z</time>
      </trkpt>
      <trkpt lat="44.72416" lon="-1.23379">
        <ele>-11.88</ele>
        <time>2024-08-22T07:42:16Z</time>
      </trkpt>
      <trkpt lat="44.72459" lon="-1.23544">
        <ele>-16.69</ele>
        <time>2024-08-22T07:45:06Z</time>
      </trkpt>
      <trkpt lat="44.72462" lon="-1.23693">
        <ele>-16.21</ele>
        <time>2024-08-22T07:49:03Z</time>
      </trkpt>
      <trkpt lat="44.72536" lon="-1.23888">
        <ele>-16.21</ele>
        <time>2024-08-22T07:51:12Z</time>
      </trkpt>
      <trkpt lat="44.72616" lon="-1.24159">
        <ele>-18.13</ele>
        <time>2024-08-22T07:53:54Z</time>
      </trkpt>
      <trkpt lat="44.72654" lon="-1.24321">
        <ele>-8.03</ele>
        <time>2024-08-22T07:56:31Z</time>
      </trkpt>
      <trkpt lat="44.72675" lon="-1.24445">
        <ele>-8.03</ele>
        <time>2024-08-22T07:58:07Z</time>
      </trkpt>
      <trkpt lat="44.72698" lon="-1.24571">
        <ele>0.14</ele>
        <time>2024-08-22T07:59:59Z</time>
      </trkpt>
      <trkpt lat="44.72711" lon="-1.24697">
        <ele>3.02</ele>
        <time>2024-08-22T08:01:35Z</time>
      </trkpt>
      <trkpt lat="44.72716" lon="-1.24794">
        <ele>-8.03</ele>
        <time>2024-08-22T08:05:04Z</time>
      </trkpt>
      <trkpt lat="44.72677" lon="-1.24886">
        <ele>-11.4</ele>
        <time>2024-08-22T08:08:34Z</time>
      </trkpt>
      <trkpt lat="44.72588" lon="-1.24903">
        <ele>-12.36</ele>
        <time>2024-08-22T08:09:34Z</time>
      </trkpt>
      <trkpt lat="44.72499" lon="-1.24926">
        <ele>-12.36</ele>
        <time>2024-08-22T08:10:37Z</time>
      </trkpt>
      <trkpt lat="44.72412" lon="-1.24958">
        <ele>-12.36</ele>
        <time>2024-08-22T08:11:41Z</time>
      </trkpt>
      <trkpt lat="44.72323" lon="-1.24989">
        <ele>-11.4</ele>
        <time>2024-08-22T08:12:46Z</time>
      </trkpt>
      <trkpt lat="44.72237" lon="-1.25007">
        <ele>-11.4</ele>
        <time>2024-08-22T08:13:47Z</time>
      </trkpt>
      <trkpt lat="44.72144" lon="-1.25025">
        <ele>-11.88</ele>
        <time>2024-08-22T08:14:51Z</time>
      </trkpt>
      <trkpt lat="44.72054" lon="-1.25043">
        <ele>-10.44</ele>
        <time>2024-08-22T08:15:59Z</time>
      </trkpt>
      <trkpt lat="44.71957" lon="-1.25062">
        <ele>-10.92</ele>
        <time>2024-08-22T08:17:06Z</time>
      </trkpt>
      <trkpt lat="44.71864" lon="-1.25096">
        <ele>-9.96</ele>
        <time>2024-08-22T08:18:14Z</time>
      </trkpt>
      <trkpt lat="44.71774" lon="-1.251">
        <ele>-9.48</ele>
        <time>2024-08-22T08:19:20Z</time>
      </trkpt>
      <trkpt lat="44.7168" lon="-1.251">
        <ele>-9.96</ele>
        <time>2024-08-22T08:20:28Z</time>
      </trkpt>
      <trkpt lat="44.71588" lon="-1.25112">
        <ele>-10.44</ele>
        <time>2024-08-22T08:21:39Z</time>
      </trkpt>
      <trkpt lat="44.71513" lon="-1.25065">
        <ele>-6.11</ele>
        <time>2024-08-22T08:23:02Z</time>
      </trkpt>
      <trkpt lat="44.71495" lon="-1.2494">
        <ele>4.94</ele>
        <time>2024-08-22T08:25:05Z</time>
      </trkpt>
      <trkpt lat="44.71475" lon="-1.24827">
        <ele>12.63</ele>
        <time>2024-08-22T08:32:13Z</time>
      </trkpt>
      <trkpt lat="44.71507" lon="-1.24714">
        <ele>7.35</ele>
        <time>2024-08-22T08:33:31Z</time>
      </trkpt>
      <trkpt lat="44.71506" lon="-1.2456">
        <ele>-0.34</ele>
        <time>2024-08-22T08:35:04Z</time>
      </trkpt>
      <trkpt lat="44.71504" lon="-1.24363">
        <ele>-4.19</ele>
        <time>2024-08-22T08:36:57Z</time>
      </trkpt>
      <trkpt lat="44.71592" lon="-1.24256">
        <ele>-4.67</ele>
        <time>2024-08-22T08:38:52Z</time>
      </trkpt>
      <trkpt lat="44.71649" lon="-1.24169">
        <ele>-6.59</ele>
        <time>2024-08-22T08:41:20Z</time>
      </trkpt>
      <trkpt lat="44.7163" lon="-1.23992">
        <ele>1.1</ele>
        <time>2024-08-22T08:43:51Z</time>
      </trkpt>
      <trkpt lat="44.71609" lon="-1.23822">
        <ele>9.27</ele>
        <time>2024-08-22T08:45:42Z</time>
      </trkpt>
      <trkpt lat="44.71569" lon="-1.23662">
        <ele>12.63</ele>
        <time>2024-08-22T08:47:26Z</time>
      </trkpt>
      <trkpt lat="44.71538" lon="-1.23479">
        <ele>12.15</ele>
        <time>2024-08-22T08:49:18Z</time>
      </trkpt>
      <trkpt lat="44.71634" lon="-1.23401">
        <ele>10.71</ele>
        <time>2024-08-22T08:53:24Z</time>
      </trkpt>
      <trkpt lat="44.71778" lon="-1.23348">
        <ele>4.94</ele>
        <time>2024-08-22T08:55:16Z</time>
      </trkpt>
      <trkpt lat="44.71806" lon="-1.23277">
        <ele>6.39</ele>
        <time>2024-08-22T08:57:00Z</time>
      </trkpt>
      <trkpt lat="44.71864" lon="-1.23175">
        <ele>-0.82</ele>
        <time>2024-08-22T08:59:11Z</time>
      </trkpt>
      <trkpt lat="44.72015" lon="-1.23131">
        <ele>-4.19</ele>
        <time>2024-08-22T09:01:14Z</time>
      </trkpt>
      <trkpt lat="44.72146" lon="-1.23089">
        <ele>-0.34</ele>
        <time>2024-08-22T09:03:34Z</time>
      </trkpt>
      <trkpt lat="44.72156" lon="-1.22936">
        <ele>-2.75</ele>
        <time>2024-08-22T09:07:37Z</time>
      </trkpt>
      <trkpt lat="44.72085" lon="-1.22735">
        <ele>0.62</ele>
        <time>2024-08-22T09:10:01Z</time>
      </trkpt>
      <trkpt lat="44.71962" lon="-1.22647">
        <ele>-2.27</ele>
        <time>2024-08-22T09:11:56Z</time>
      </trkpt>
      <trkpt lat="44.71879" lon="-1.22498">
        <ele>-0.34</ele>
        <time>2024-08-22T09:13:45Z</time>
      </trkpt>
      <trkpt lat="44.71882" lon="-1.22302">
        <ele>4.46</ele>
        <time>2024-08-22T09:15:49Z</time>
      </trkpt>
      <trkpt lat="44.71867" lon="-1.22067">
        <ele>-7.55</ele>
        <time>2024-08-22T09:18:32Z</time>
      </trkpt>
      <trkpt lat="44.71838" lon="-1.21886">
        <ele>-6.11</ele>
        <time>2024-08-22T09:20:20Z</time>
      </trkpt>
      <trkpt lat="44.71841" lon="-1.21703">
        <ele>1.1</ele>
        <time>2024-08-22T09:22:15Z</time>
      </trkpt>
      <trkpt lat="44.71845" lon="-1.21524">
        <ele>-1.3</ele>
        <time>2024-08-22T09:23:54Z</time>
      </trkpt>
      <trkpt lat="44.71883" lon="-1.21334">
        <ele>-10.92</ele>
        <time>2024-08-22T09:26:11Z</time>
      </trkpt>
      <trkpt lat="44.71836" lon="-1.21162">
        <ele>-8.03</ele>
        <time>2024-08-22T09:28:29Z</time>
      </trkpt>
      <trkpt lat="44.71793" lon="-1.21035">
        <ele>-10.92</ele>
        <time>2024-08-22T09:30:25Z</time>
      </trkpt>
      <trkpt lat="44.71725" lon="-1.20921">
        <ele>-10.92</ele>
        <time>2024-08-22T09:32:44Z</time>
      </trkpt>
      <trkpt lat="44.71802" lon="-1.20672">
        <ele>-9</ele>
        <time>2024-08-22T09:34:50Z</time>
      </trkpt>
    </trkseg>
  </trk>
</gpx>